Time;durP1;ratioP1;P1;durP2;ratioP2;P2;SDS_P1;SDS_P2;PMS_P1;PMS_P2;Temp;Humidity;BMP_temperature;BMP_pressure;BME280_temperature;BME280_humidity;BME280_pressure;Samples;Min_cycle;Max_cycle;Signal;HPM_P1;HPM_P2
2022/09/19 00:01:32;;;;;;;16.70;2.17;;;;;;;;;;5043372;28;20212;-68
2022/09/19 00:04:03;;;;;;;19.27;2.30;;;;;;;;;;5044005;28;20170;-69
2022/09/19 00:06:32;;;;;;;22.77;3.00;;;;;;;;;;5043873;28;20190;-69
2022/09/19 00:08:59;;;;;;;13.52;2.05;;;;;;;;;;5059558;28;20184;-68
2022/09/19 00:11:25;;;;;;;16.67;2.47;;;;;;;;;;5035958;28;20567;-69
2022/09/19 00:13:53;;;;;;;17.42;2.00;;;;;;;;;;5052413;28;20232;-69
2022/09/19 00:16:24;;;;;;;18.10;2.05;;;;;;;;;;5034093;28;20553;-69
2022/09/19 00:18:52;;;;;;;21.45;2.75;;;;;;;;;;5056674;28;20234;-68
2022/09/19 00:21:20;;;;;;;11.20;2.05;;;;;;;;;;5037473;28;20214;-69
2022/09/19 00:26:29;;;;;;;19.50;2.80;;;;;;;;;;5048356;28;20725;-69
2022/09/19 00:28:54;;;;;;;18.23;2.17;;;;;;;;;;5063204;28;20185;-68
2022/09/19 00:31:20;;;;;;;14.23;2.25;;;;;;;;;;5048139;28;20530;-69
2022/09/19 00:33:48;;;;;;;24.23;2.28;;;;;;;;;;5050606;28;20185;-68
2022/09/19 00:36:14;;;;;;;13.52;2.10;;;;;;;;;;5050402;28;20235;-69
2022/09/19 00:38:41;;;;;;;21.00;2.40;;;;;;;;;;5060847;28;20189;-69
2022/09/19 00:41:07;;;;;;;19.90;2.20;;;;;;;;;;5049213;28;20236;-69
2022/09/19 00:43:50;;;;;;;20.03;1.97;;;;;;;;;;5045946;28;20216;-69
2022/09/19 00:46:17;;;;;;;17.40;2.33;;;;;;;;;;5045827;28;20189;-69
2022/09/19 00:48:45;;;;;;;18.43;2.40;;;;;;;;;;5029400;28;20234;-69
2022/09/19 00:51:14;;;;;;;20.30;3.03;;;;;;;;;;5048415;28;20672;-69
2022/09/19 00:53:41;;;;;;;15.27;2.25;;;;;;;;;;5047300;28;20193;-69
2022/09/19 00:56:06;;;;;;;18.03;2.43;;;;;;;;;;5038473;28;20173;-69
2022/09/19 00:58:35;;;;;;;17.20;2.07;;;;;;;;;;5045605;28;20199;-70
2022/09/19 01:01:01;;;;;;;19.13;2.80;;;;;;;;;;5043418;28;20213;-69
2022/09/19 01:03:28;;;;;;;16.35;2.47;;;;;;;;;;5056071;28;20189;-69
2022/09/19 01:06:24;;;;;;;20.77;2.40;;;;;;;;;;5063937;28;20579;-69
2022/09/19 01:09:13;;;;;;;17.67;2.58;;;;;;;;;;5047223;28;20176;-68
2022/09/19 01:11:57;;;;;;;18.33;2.93;;;;;;;;;;5059315;28;20614;-68
2022/09/19 01:14:43;;;;;;;11.47;2.03;;;;;;;;;;5037977;28;20188;-68
2022/09/19 01:17:17;;;;;;;22.77;2.13;;;;;;;;;;5034804;28;20522;-68
2022/09/19 01:19:58;;;;;;;17.77;2.30;;;;;;;;;;5029988;28;20665;-67
2022/09/19 01:23:08;;;;;;;20.40;2.37;;;;;;;;;;5042260;28;20398;-68
2022/09/19 01:25:48;;;;;;;22.17;2.40;;;;;;;;;;5031317;28;20269;-68
2022/09/19 01:28:37;;;;;;;12.60;1.90;;;;;;;;;;5048300;28;20185;-67
2022/09/19 01:31:19;;;;;;;14.73;2.63;;;;;;;;;;5044034;28;20237;-68
2022/09/19 01:34:22;;;;;;;17.07;2.17;;;;;;;;;;5043635;28;20177;-68
2022/09/19 01:36:56;;;;;;;17.57;3.17;;;;;;;;;;5054430;28;20277;-68
2022/09/19 01:39:23;;;;;;;14.87;2.00;;;;;;;;;;5033726;28;20181;-68
2022/09/19 01:41:53;;;;;;;23.20;2.50;;;;;;;;;;5051012;28;20690;-68
2022/09/19 01:44:22;;;;;;;15.77;2.20;;;;;;;;;;5051944;28;20267;-68
2022/09/19 01:47:15;;;;;;;22.00;2.70;;;;;;;;;;5050740;28;20177;-68
2022/09/19 01:50:08;;;;;;;22.23;2.50;;;;;;;;;;5044394;28;20203;-68
2022/09/19 01:52:48;;;;;;;18.77;2.43;;;;;;;;;;5054427;28;20188;-69
2022/09/19 01:55:33;;;;;;;19.80;2.50;;;;;;;;;;5046787;28;20555;-68
2022/09/19 01:58:37;;;;;;;18.63;2.60;;;;;;;;;;5035655;28;20218;-68
2022/09/19 02:01:14;;;;;;;16.33;2.23;;;;;;;;;;5047858;28;20299;-69
2022/09/19 02:03:48;;;;;;;18.30;2.63;;;;;;;;;;5055627;28;20184;-69
2022/09/19 02:06:50;;;;;;;20.83;2.47;;;;;;;;;;5040401;28;20189;-69
2022/09/19 02:09:22;;;;;;;21.83;2.63;;;;;;;;;;5054642;28;20283;-69
2022/09/19 02:11:51;;;;;;;17.63;2.53;;;;;;;;;;5032982;28;20178;-69
2022/09/19 02:14:21;;;;;;;17.05;2.63;;;;;;;;;;5040896;28;20170;-68
2022/09/19 02:17:13;;;;;;;20.25;2.75;;;;;;;;;;5030435;28;20186;-69
2022/09/19 02:19:45;;;;;;;23.58;2.55;;;;;;;;;;5033738;28;20201;-69
2022/09/19 02:22:20;;;;;;;20.75;2.90;;;;;;;;;;5032233;28;20182;-68
2022/09/19 02:24:47;;;;;;;15.97;1.90;;;;;;;;;;5040095;28;20187;-68
2022/09/19 02:27:20;;;;;;;11.67;1.70;;;;;;;;;;5033228;28;20240;-67
2022/09/19 02:29:53;;;;;;;15.03;1.63;;;;;;;;;;5040792;28;20719;-69
2022/09/19 02:32:20;;;;;;;16.17;2.10;;;;;;;;;;5043142;28;20911;-68
2022/09/19 02:34:48;;;;;;;17.23;2.33;;;;;;;;;;5050094;28;20181;-68
2022/09/19 02:37:35;;;;;;;18.57;2.63;;;;;;;;;;5053716;28;20181;-68
2022/09/19 02:40:12;;;;;;;19.47;2.77;;;;;;;;;;5045168;28;20198;-68
2022/09/19 02:42:52;;;;;;;13.43;1.97;;;;;;;;;;5053527;28;20181;-69
2022/09/19 02:45:21;;;;;;;17.87;2.23;;;;;;;;;;5050607;28;20177;-69
2022/09/19 02:48:09;;;;;;;13.77;1.73;;;;;;;;;;5042621;28;20247;-69
2022/09/19 02:50:47;;;;;;;22.57;3.37;;;;;;;;;;5063177;28;20236;-68
2022/09/19 02:53:17;;;;;;;15.87;1.90;;;;;;;;;;5049563;28;20453;-68
2022/09/19 02:55:47;;;;;;;13.53;1.93;;;;;;;;;;5053822;28;20208;-69
2022/09/19 02:58:15;;;;;;;11.83;2.27;;;;;;;;;;5050125;28;20727;-68
2022/09/19 03:00:41;;;;;;;13.10;1.60;;;;;;;;;;5049411;28;20204;-69
2022/09/19 03:06:00;;;;;;;17.20;2.20;;;;;;;;;;5064250;28;20187;-69
2022/09/19 03:08:27;;;;;;;13.88;1.73;;;;;;;;;;5044172;28;20213;-69
2022/09/19 03:10:57;;;;;;;15.80;2.15;;;;;;;;;;5051378;28;20228;-70
2022/09/19 03:13:24;;;;;;;18.50;2.63;;;;;;;;;;5049654;28;20637;-69
2022/09/19 03:16:07;;;;;;;14.82;2.10;;;;;;;;;;5047671;28;20514;-70
2022/09/19 03:18:35;;;;;;;19.77;2.23;;;;;;;;;;5046553;28;20189;-70
2022/09/19 03:21:03;;;;;;;16.20;2.07;;;;;;;;;;5054012;28;20217;-69
2022/09/19 03:23:34;;;;;;;13.05;1.88;;;;;;;;;;5043482;28;20193;-69
2022/09/19 03:26:01;;;;;;;16.33;2.17;;;;;;;;;;5040724;28;20220;-69
2022/09/19 03:28:27;;;;;;;13.63;1.70;;;;;;;;;;5046587;28;20181;-69
2022/09/19 03:30:54;;;;;;;21.63;3.73;;;;;;;;;;5029838;28;20170;-69
2022/09/19 03:33:19;;;;;;;13.10;1.87;;;;;;;;;;5051090;28;20555;-69
2022/09/19 03:35:50;;;;;;;19.47;2.37;;;;;;;;;;5055958;28;20189;-70
2022/09/19 03:38:16;;;;;;;12.67;2.03;;;;;;;;;;5053459;28;20185;-69
2022/09/19 03:40:41;;;;;;;18.30;2.00;;;;;;;;;;5048426;28;20213;-69
2022/09/19 03:43:06;;;;;;;14.90;1.93;;;;;;;;;;5049073;28;20601;-69
2022/09/19 03:45:32;;;;;;;12.07;1.73;;;;;;;;;;5054194;28;20209;-69
2022/09/19 03:47:57;;;;;;;17.67;2.30;;;;;;;;;;5052013;28;20670;-70
2022/09/19 03:50:23;;;;;;;21.00;2.40;;;;;;;;;;5044966;28;20177;-70
2022/09/19 03:52:49;;;;;;;15.50;2.40;;;;;;;;;;5049600;28;20266;-69
2022/09/19 03:55:15;;;;;;;15.13;1.90;;;;;;;;;;5044605;28;20177;-69
2022/09/19 03:57:40;;;;;;;18.83;2.60;;;;;;;;;;5046929;28;20661;-68
2022/09/19 04:00:07;;;;;;;23.50;2.50;;;;;;;;;;5039697;28;20194;-69
2022/09/19 04:02:33;;;;;;;20.47;2.53;;;;;;;;;;5046663;28;20193;-69
2022/09/19 04:04:58;;;;;;;14.37;1.90;;;;;;;;;;5048468;28;20568;-69
2022/09/19 04:07:27;;;;;;;10.60;1.77;;;;;;;;;;5048271;28;20202;-69
2022/09/19 04:09:54;;;;;;;21.30;2.60;;;;;;;;;;5044490;28;20174;-69
2022/09/19 04:12:20;;;;;;;18.23;1.83;;;;;;;;;;5053866;28;20203;-70
2022/09/19 04:14:45;;;;;;;15.73;1.80;;;;;;;;;;5032336;28;20273;-69
2022/09/19 04:17:11;;;;;;;17.97;2.40;;;;;;;;;;5044511;28;20173;-69
2022/09/19 04:19:36;;;;;;;18.10;2.20;;;;;;;;;;5044726;28;20596;-70
2022/09/19 04:22:02;;;;;;;15.13;2.17;;;;;;;;;;5039724;28;20691;-70
2022/09/19 04:24:29;;;;;;;17.77;1.93;;;;;;;;;;5039717;28;20217;-70
2022/09/19 04:26:55;;;;;;;14.83;2.13;;;;;;;;;;5032326;28;20586;-70
2022/09/19 04:29:20;;;;;;;18.50;2.97;;;;;;;;;;5032565;28;20178;-69
2022/09/19 04:31:46;;;;;;;20.08;2.30;;;;;;;;;;5030292;28;20194;-70
2022/09/19 04:34:14;;;;;;;17.88;2.65;;;;;;;;;;5030908;28;20193;-70
2022/09/19 04:36:40;;;;;;;23.73;4.20;;;;;;;;;;5032050;28;20662;-70
2022/09/19 04:39:06;;;;;;;15.40;2.55;;;;;;;;;;5038598;28;20189;-70
2022/09/19 04:41:36;;;;;;;22.52;2.00;;;;;;;;;;5038312;28;20202;-70
2022/09/19 04:44:03;;;;;;;16.85;2.17;;;;;;;;;;5047813;28;20181;-69
2022/09/19 04:46:29;;;;;;;16.70;2.50;;;;;;;;;;5035919;28;20178;-67
2022/09/19 04:48:55;;;;;;;23.13;2.47;;;;;;;;;;5041898;28;20549;-69
2022/09/19 04:51:21;;;;;;;18.90;2.25;;;;;;;;;;5037373;28;20224;-69
2022/09/19 04:53:47;;;;;;;17.37;1.97;;;;;;;;;;5047871;28;20188;-70
2022/09/19 04:56:12;;;;;;;15.57;2.03;;;;;;;;;;5039209;28;20177;-69
2022/09/19 04:58:40;;;;;;;16.23;2.67;;;;;;;;;;5041878;28;20186;-70
2022/09/19 05:01:06;;;;;;;15.50;2.40;;;;;;;;;;5030630;28;20440;-70
2022/09/19 05:03:32;;;;;;;19.23;2.25;;;;;;;;;;5035777;28;20204;-69
2022/09/19 05:05:59;;;;;;;13.55;2.55;;;;;;;;;;5031465;28;20178;-70
2022/09/19 05:08:27;;;;;;;14.07;2.13;;;;;;;;;;5035700;28;20267;-69
2022/09/19 05:10:54;;;;;;;13.77;2.10;;;;;;;;;;5034555;28;20873;-70
2022/09/19 05:13:23;;;;;;;16.88;1.83;;;;;;;;;;5032349;28;20177;-69
2022/09/19 05:15:51;;;;;;;13.95;2.33;;;;;;;;;;5031444;28;20181;-69
2022/09/19 05:18:20;;;;;;;16.65;2.20;;;;;;;;;;5028473;28;20189;-69
2022/09/19 05:20:45;;;;;;;21.10;2.23;;;;;;;;;;5032797;28;20768;-69
2022/09/19 05:23:10;;;;;;;17.83;2.53;;;;;;;;;;5036379;28;20268;-69
2022/09/19 05:25:40;;;;;;;18.77;2.30;;;;;;;;;;5030107;28;20188;-70
2022/09/19 05:28:08;;;;;;;16.27;2.20;;;;;;;;;;5028609;28;20182;-69
2022/09/19 05:30:36;;;;;;;13.20;1.67;;;;;;;;;;5030262;28;20243;-70
2022/09/19 05:33:02;;;;;;;20.60;2.20;;;;;;;;;;5030489;28;20283;-70
2022/09/19 05:35:29;;;;;;;19.92;2.75;;;;;;;;;;5042304;28;20631;-70
2022/09/19 05:37:54;;;;;;;16.60;2.23;;;;;;;;;;5039398;28;20264;-70
2022/09/19 05:40:19;;;;;;;11.83;1.93;;;;;;;;;;5033424;28;20308;-69
2022/09/19 05:42:50;;;;;;;13.53;2.40;;;;;;;;;;5035632;28;20189;-69
2022/09/19 05:45:16;;;;;;;19.73;2.23;;;;;;;;;;5044726;28;20556;-69
2022/09/19 05:47:41;;;;;;;14.23;2.70;;;;;;;;;;5040618;28;20185;-69
2022/09/19 05:50:08;;;;;;;16.90;2.43;;;;;;;;;;5044378;28;20845;-69
2022/09/19 05:55:22;;;;;;;21.17;2.50;;;;;;;;;;5028597;28;20220;-70
2022/09/19 05:57:58;;;;;;;20.73;2.77;;;;;;;;;;5028244;28;20205;-69
2022/09/19 06:00:26;;;;;;;18.13;2.70;;;;;;;;;;5031589;28;20254;-70
2022/09/19 06:02:57;;;;;;;23.37;2.50;;;;;;;;;;5033173;28;20190;-70
2022/09/19 06:05:23;;;;;;;15.57;2.10;;;;;;;;;;5032177;28;20437;-69
2022/09/19 06:07:51;;;;;;;18.23;2.70;;;;;;;;;;5028121;28;20257;-70
2022/09/19 06:10:17;;;;;;;18.83;2.37;;;;;;;;;;5027652;28;20175;-70
2022/09/19 06:12:42;;;;;;;20.43;3.20;;;;;;;;;;5045426;28;20182;-70
2022/09/19 06:15:08;;;;;;;17.60;2.27;;;;;;;;;;5035948;28;20680;-70
2022/09/19 06:17:33;;;;;;;15.43;2.90;;;;;;;;;;5047618;28;20177;-70
2022/09/19 06:19:59;;;;;;;16.03;2.07;;;;;;;;;;5046782;28;20210;-69
2022/09/19 06:22:25;;;;;;;15.50;2.13;;;;;;;;;;5045278;28;20187;-69
2022/09/19 06:24:51;;;;;;;18.13;3.00;;;;;;;;;;5038555;28;20582;-70
2022/09/19 06:27:16;;;;;;;11.83;2.13;;;;;;;;;;5032194;28;20221;-70
2022/09/19 06:29:41;;;;;;;12.93;2.73;;;;;;;;;;5044822;28;20192;-70
2022/09/19 06:32:07;;;;;;;21.10;2.33;;;;;;;;;;5037131;28;20205;-70
2022/09/19 06:34:32;;;;;;;19.23;3.57;;;;;;;;;;5039453;28;20182;-69
2022/09/19 06:36:57;;;;;;;12.37;2.60;;;;;;;;;;5043423;28;20542;-70
2022/09/19 06:39:23;;;;;;;16.83;2.77;;;;;;;;;;5032224;28;20610;-69
2022/09/19 06:41:48;;;;;;;11.90;2.43;;;;;;;;;;5046771;28;20201;-69
2022/09/19 06:44:14;;;;;;;13.27;2.53;;;;;;;;;;5036917;28;20190;-70
2022/09/19 06:46:39;;;;;;;10.77;1.53;;;;;;;;;;5033269;28;20847;-70
2022/09/19 06:49:07;;;;;;;19.20;2.50;;;;;;;;;;5034882;28;20421;-70
2022/09/19 06:51:33;;;;;;;22.30;2.13;;;;;;;;;;5035569;28;20174;-70
2022/09/19 06:53:59;;;;;;;16.03;2.07;;;;;;;;;;5036052;28;20193;-69
2022/09/19 06:56:24;;;;;;;13.47;2.00;;;;;;;;;;5064842;28;20182;-70
2022/09/19 06:58:50;;;;;;;18.60;2.13;;;;;;;;;;5035769;28;20177;-70
2022/09/19 07:01:15;;;;;;;11.70;2.10;;;;;;;;;;5032356;28;20583;-70
2022/09/19 07:03:41;;;;;;;12.77;2.43;;;;;;;;;;5030482;28;20666;-70
2022/09/19 07:06:07;;;;;;;19.05;2.10;;;;;;;;;;5037415;28;20171;-70
2022/09/19 07:08:32;;;;;;;12.35;2.33;;;;;;;;;;5031958;28;20186;-70
2022/09/19 07:10:58;;;;;;;20.23;2.05;;;;;;;;;;5034181;28;20197;-69
2022/09/19 07:13:23;;;;;;;12.18;2.38;;;;;;;;;;5031388;28;20642;-70
2022/09/19 07:15:49;;;;;;;15.45;2.00;;;;;;;;;;5042390;28;20242;-70
2022/09/19 07:18:14;;;;;;;19.45;2.22;;;;;;;;;;5042098;28;20186;-68
2022/09/19 07:20:41;;;;;;;16.02;1.73;;;;;;;;;;5038949;28;20209;-70
2022/09/19 07:23:13;;;;;;;15.40;2.00;;;;;;;;;;5033932;28;20213;-70
2022/09/19 07:25:39;;;;;;;8.82;1.63;;;;;;;;;;5035755;28;20193;-70
2022/09/19 07:28:06;;;;;;;10.55;1.52;;;;;;;;;;5038808;28;20182;-70
2022/09/19 07:30:34;;;;;;;11.32;1.70;;;;;;;;;;5041625;28;20249;-70
2022/09/19 07:33:01;;;;;;;18.25;2.22;;;;;;;;;;5035308;28;20208;-69
2022/09/19 07:35:28;;;;;;;12.25;1.80;;;;;;;;;;5035373;28;20209;-70
2022/09/19 07:37:54;;;;;;;16.67;1.90;;;;;;;;;;5031030;28;20277;-69
2022/09/19 07:40:21;;;;;;;12.55;1.88;;;;;;;;;;5031568;28;20416;-70
2022/09/19 07:42:46;;;;;;;9.90;1.40;;;;;;;;;;5030585;28;20186;-70
2022/09/19 07:45:12;;;;;;;13.48;1.58;;;;;;;;;;5036591;28;20401;-69
2022/09/19 07:47:44;;;;;;;14.45;1.33;;;;;;;;;;5030383;28;20625;-69
2022/09/19 07:50:15;;;;;;;13.35;1.58;;;;;;;;;;5031034;28;20217;-69
2022/09/19 07:52:41;;;;;;;15.85;1.42;;;;;;;;;;5031478;28;20338;-68
2022/09/19 07:55:07;;;;;;;10.95;1.73;;;;;;;;;;5034913;28;20232;-69
2022/09/19 07:57:33;;;;;;;13.93;1.90;;;;;;;;;;5033086;28;20588;-69
2022/09/19 07:59:59;;;;;;;12.18;1.45;;;;;;;;;;5034610;28;20456;-69
2022/09/19 08:02:25;;;;;;;7.82;1.17;;;;;;;;;;5046294;28;20247;-70
2022/09/19 08:04:50;;;;;;;13.10;2.55;;;;;;;;;;5029865;28;20185;-69
2022/09/19 08:07:17;;;;;;;16.52;1.63;;;;;;;;;;5031365;28;20265;-69
2022/09/19 08:09:43;;;;;;;8.52;1.20;;;;;;;;;;5026271;28;20532;-71
2022/09/19 08:12:12;;;;;;;11.55;1.60;;;;;;;;;;5031338;28;20182;-69
2022/09/19 08:14:38;;;;;;;10.10;1.38;;;;;;;;;;5030935;28;20676;-69
2022/09/19 08:17:03;;;;;;;9.82;1.20;;;;;;;;;;5031723;28;20182;-69
2022/09/19 08:19:28;;;;;;;11.07;1.60;;;;;;;;;;5043302;28;20690;-70
2022/09/19 08:21:54;;;;;;;12.70;1.27;;;;;;;;;;5036414;28;20206;-69
2022/09/19 08:24:19;;;;;;;7.47;1.30;;;;;;;;;;5027933;28;20529;-70
2022/09/19 08:26:45;;;;;;;14.27;1.80;;;;;;;;;;5027559;28;20237;-69
2022/09/19 08:29:10;;;;;;;10.65;1.60;;;;;;;;;;5027427;28;20257;-68
2022/09/19 08:31:36;;;;;;;9.07;1.23;;;;;;;;;;5034230;28;20442;-70
2022/09/19 08:34:02;;;;;;;7.38;1.25;;;;;;;;;;5043653;28;20182;-70
2022/09/19 08:36:27;;;;;;;11.98;1.98;;;;;;;;;;5037518;28;20179;-69
2022/09/19 08:38:53;;;;;;;9.27;2.03;;;;;;;;;;5050962;28;20191;-71
2022/09/19 08:41:48;;;;;;;9.13;1.63;;;;;;;;;;5038868;28;20236;-69
2022/09/19 08:44:43;;;;;;;7.55;1.50;;;;;;;;;;5042716;28;20193;-72
2022/09/19 08:47:15;;;;;;;9.88;1.63;;;;;;;;;;5043048;28;20231;-71
2022/09/19 08:49:46;;;;;;;9.13;1.35;;;;;;;;;;5033284;28;20178;-72
2022/09/19 08:52:29;;;;;;;10.45;1.45;;;;;;;;;;5050491;28;20169;-70
2022/09/19 08:54:57;;;;;;;10.48;1.40;;;;;;;;;;5046552;28;20272;-70
2022/09/19 08:57:31;;;;;;;10.20;1.50;;;;;;;;;;5040055;28;20306;-69
2022/09/19 09:00:02;;;;;;;6.20;1.00;;;;;;;;;;5046210;28;20189;-68
2022/09/19 09:02:58;;;;;;;6.97;1.10;;;;;;;;;;5045043;28;20181;-71
2022/09/19 09:05:33;;;;;;;12.23;1.75;;;;;;;;;;5047967;28;20207;-71
2022/09/19 09:08:01;;;;;;;8.27;1.83;;;;;;;;;;5043234;28;20204;-68
2022/09/19 09:10:42;;;;;;;7.15;1.13;;;;;;;;;;5047984;28;20192;-69
2022/09/19 09:13:53;;;;;;;9.23;1.45;;;;;;;;;;5038880;28;20178;-67
2022/09/19 09:16:58;;;;;;;11.77;1.67;;;;;;;;;;5040401;28;20197;-71
2022/09/19 09:19:37;;;;;;;9.68;1.20;;;;;;;;;;5037764;28;20181;-71
2022/09/19 09:22:24;;;;;;;12.38;1.27;;;;;;;;;;5039484;28;20212;-71
2022/09/19 09:25:07;;;;;;;9.20;1.42;;;;;;;;;;5028825;28;20686;-71
2022/09/19 09:27:41;;;;;;;6.70;1.02;;;;;;;;;;5026966;28;20253;-70
2022/09/19 09:30:16;;;;;;;8.43;1.00;;;;;;;;;;5028491;28;20256;-72
2022/09/19 09:32:48;;;;;;;8.30;1.00;;;;;;;;;;5052180;28;20200;-72
2022/09/19 09:35:29;;;;;;;13.73;1.75;;;;;;;;;;5034767;28;20185;-70
2022/09/19 09:38:06;;;;;;;6.88;1.20;;;;;;;;;;5048648;28;20181;-69
2022/09/19 09:43:29;;;;;;;9.25;1.20;;;;;;;;;;5045675;28;20196;-67
2022/09/19 09:45:59;;;;;;;6.75;1.20;;;;;;;;;;5048457;28;20192;-69
2022/09/19 09:48:31;;;;;;;8.38;1.30;;;;;;;;;;5055246;28;20185;-70
2022/09/19 09:51:39;;;;;;;11.57;1.63;;;;;;;;;;5058019;28;20659;-71
2022/09/19 09:56:14;;;;;;;8.90;1.35;;;;;;;;;;5056801;28;20215;-69
2022/09/19 09:57:05;;;;;;;9.60;1.33;;;;;;;;;;5052448;28;20193;-70
2022/09/19 10:05:36;;;;;;;11.60;1.20;;;;;;;;;;5046891;28;20497;-74
2022/09/19 10:08:19;;;;;;;9.38;1.23;;;;;;;;;;5051639;28;20592;-71
2022/09/19 10:10:46;;;;;;;10.13;1.77;;;;;;;;;;5051111;28;20528;-71
2022/09/19 10:13:27;;;;;;;9.63;1.30;;;;;;;;;;5051825;28;20182;-72
2022/09/19 10:15:56;;;;;;;9.70;1.75;;;;;;;;;;5032910;28;20223;-70
2022/09/19 10:18:24;;;;;;;10.43;1.33;;;;;;;;;;5033810;28;20188;-70
2022/09/19 10:20:53;;;;;;;8.07;1.40;;;;;;;;;;5034281;28;20601;-69
2022/09/19 10:23:25;;;;;;;9.18;1.35;;;;;;;;;;5029507;28;20178;-68
2022/09/19 10:26:04;;;;;;;6.13;1.06;;;;;;;;;;4513406;28;10002885;-69
2022/09/19 10:28:33;;;;;;;6.40;1.15;;;;;;;;;;5033720;28;20184;-68
2022/09/19 10:31:01;;;;;;;14.00;1.63;;;;;;;;;;5029381;28;20644;-69
2022/09/19 10:33:38;;;;;;;9.25;1.40;;;;;;;;;;5030423;28;20560;-70
2022/09/19 10:36:07;;;;;;;9.73;1.40;;;;;;;;;;5026976;28;20344;-74
2022/09/19 10:38:54;;;;;;;11.15;1.33;;;;;;;;;;5033273;28;20669;-65
2022/09/19 10:41:22;;;;;;;13.55;1.92;;;;;;;;;;5028876;28;20708;-70
2022/09/19 10:43:53;;;;;;;9.00;1.80;;;;;;;;;;5041737;28;20273;-70
2022/09/19 10:46:23;;;;;;;9.93;1.40;;;;;;;;;;5027788;28;20332;-70
2022/09/19 10:48:56;;;;;;;9.43;1.40;;;;;;;;;;5029380;28;20189;-68
2022/09/19 10:51:29;;;;;;;6.88;0.95;;;;;;;;;;5028514;28;20178;-68
2022/09/19 10:53:55;;;;;;;5.97;1.17;;;;;;;;;;5028036;28;20174;-69
2022/09/19 10:56:25;;;;;;;9.68;1.23;;;;;;;;;;5027117;28;20272;-69
2022/09/19 10:59:18;;;;;;;7.10;0.90;;;;;;;;;;5038026;28;20296;-69
2022/09/19 11:02:10;;;;;;;7.20;1.25;;;;;;;;;;5030163;28;20608;-69
2022/09/19 11:04:37;;;;;;;8.20;1.40;;;;;;;;;;5028476;28;20193;-68
2022/09/19 11:07:16;;;;;;;7.78;1.10;;;;;;;;;;5027453;28;20240;-68
2022/09/19 11:09:42;;;;;;;7.03;1.17;;;;;;;;;;5027259;28;20276;-66
2022/09/19 11:12:15;;;;;;;7.95;1.20;;;;;;;;;;5027666;28;20724;-71
2022/09/19 11:14:50;;;;;;;4.45;1.00;;;;;;;;;;5029550;28;20201;-70
2022/09/19 11:17:23;;;;;;;4.95;0.60;;;;;;;;;;5028069;28;20185;-73
2022/09/19 11:20:07;;;;;;;4.35;0.98;;;;;;;;;;5029072;28;20194;-75
2022/09/19 11:23:13;;;;;;;8.93;1.27;;;;;;;;;;5030147;28;20181;-78
2022/09/19 11:26:03;;;;;;;3.50;0.52;;;;;;;;;;5031748;28;21252;-74
2022/09/19 11:28:49;;;;;;;4.75;0.70;;;;;;;;;;5033468;28;20182;-77
2022/09/19 11:31:39;;;;;;;6.68;0.63;;;;;;;;;;5037614;28;20247;-75
2022/09/19 11:34:13;;;;;;;8.48;0.90;;;;;;;;;;5026043;28;20185;-74
2022/09/19 11:37:04;;;;;;;3.25;0.80;;;;;;;;;;5028094;28;20208;-74
2022/09/19 11:40:27;;;;;;;5.15;1.30;;;;;;;;;;5027711;28;20592;-72
2022/09/19 11:43:03;;;;;;;2.83;0.40;;;;;;;;;;5011512;28;20209;-72
2022/09/19 11:45:56;;;;;;;1.80;0.30;;;;;;;;;;5028383;28;20217;-71
2022/09/19 11:48:54;;;;;;;4.43;0.90;;;;;;;;;;5026675;28;20205;-70
2022/09/19 11:51:42;;;;;;;3.30;0.80;;;;;;;;;;5032426;28;20273;-70
2022/09/19 11:54:22;;;;;;;5.88;0.93;;;;;;;;;;5032982;28;20200;-71
2022/09/19 11:57:10;;;;;;;8.68;1.35;;;;;;;;;;5033284;28;20193;-70
2022/09/19 11:59:45;;;;;;;6.45;1.35;;;;;;;;;;5038010;28;20259;-70
2022/09/19 12:02:36;;;;;;;9.52;1.33;;;;;;;;;;5031221;28;20537;-70
2022/09/19 12:05:19;;;;;;;11.95;1.42;;;;;;;;;;5039292;28;20543;-69
2022/09/19 12:08:00;;;;;;;12.25;2.17;;;;;;;;;;5028317;28;20212;-68
2022/09/19 12:10:31;;;;;;;7.43;1.45;;;;;;;;;;5040054;28;20216;-69
2022/09/19 12:13:05;;;;;;;10.10;1.40;;;;;;;;;;5028331;28;20261;-69
2022/09/19 12:15:35;;;;;;;11.52;1.85;;;;;;;;;;5041333;28;20173;-71
2022/09/19 12:18:21;;;;;;;11.40;1.42;;;;;;;;;;5028540;28;20193;-69
2022/09/19 12:20:49;;;;;;;12.13;1.90;;;;;;;;;;5040442;28;20661;-72
2022/09/19 12:26:53;;;;;;;7.30;1.10;;;;;;;;;;5031424;28;20328;-70
2022/09/19 12:29:48;;;;;;;7.50;1.25;;;;;;;;;;5030335;28;20218;-69
2022/09/19 12:32:40;;;;;;;6.63;1.80;;;;;;;;;;5035675;28;20584;-71
2022/09/19 12:35:18;;;;;;;6.38;1.17;;;;;;;;;;5030135;28;20178;-70
2022/09/19 12:38:17;;;;;;;6.43;1.27;;;;;;;;;;5029858;28;20213;-68
2022/09/19 12:41:22;;;;;;;5.55;1.20;;;;;;;;;;5027944;28;20226;-68
2022/09/19 12:43:59;;;;;;;4.10;0.50;;;;;;;;;;5027564;28;20197;-75
2022/09/19 12:46:42;;;;;;;5.15;0.88;;;;;;;;;;5028464;28;20185;-72
2022/09/19 12:49:17;;;;;;;4.95;0.60;;;;;;;;;;5027080;28;20712;-70
2022/09/19 12:52:04;;;;;;;2.72;0.60;;;;;;;;;;5028688;28;20205;-71
2022/09/19 12:55:03;;;;;;;2.22;0.55;;;;;;;;;;5041775;28;20189;-70
2022/09/19 12:57:35;;;;;;;3.10;0.50;;;;;;;;;;5032945;28;20254;-70
2022/09/19 13:00:01;;;;;;;3.35;0.57;;;;;;;;;;5035686;28;20221;-72
2022/09/19 13:02:33;;;;;;;2.42;0.50;;;;;;;;;;5032527;28;20224;-72
2022/09/19 13:05:18;;;;;;;3.67;0.52;;;;;;;;;;5029880;28;20268;-74
2022/09/19 13:07:47;;;;;;;4.82;0.70;;;;;;;;;;5033497;28;20228;-70
2022/09/19 13:10:26;;;;;;;5.55;1.13;;;;;;;;;;5041420;28;20190;-76
2022/09/19 13:13:05;;;;;;;7.70;0.93;;;;;;;;;;5038798;28;20259;-72
2022/09/19 13:15:39;;;;;;;9.38;0.90;;;;;;;;;;5035514;28;20247;-71
2022/09/19 13:23:38;;;;;;;3.22;0.90;;;;;;;;;;5046750;28;20255;-71
2022/09/19 13:26:20;;;;;;;4.80;0.88;;;;;;;;;;5057471;28;20217;-70
2022/09/19 13:28:59;;;;;;;6.15;1.02;;;;;;;;;;5050114;28;20680;-69
2022/09/19 13:31:32;;;;;;;4.53;0.90;;;;;;;;;;5049862;28;20200;-69
2022/09/19 13:33:58;;;;;;;5.07;1.20;;;;;;;;;;5055786;28;20633;-69
2022/09/19 13:36:23;;;;;;;7.57;1.00;;;;;;;;;;5046742;28;20273;-70
2022/09/19 13:38:55;;;;;;;5.07;1.05;;;;;;;;;;5043148;28;20177;-70
2022/09/19 13:41:33;;;;;;;8.02;0.98;;;;;;;;;;5042387;28;20240;-71
2022/09/19 13:44:10;;;;;;;7.32;1.73;;;;;;;;;;5045680;28;20608;-71
2022/09/19 13:46:53;;;;;;;7.93;1.27;;;;;;;;;;5036199;28;20926;-71
2022/09/19 13:49:33;;;;;;;9.35;1.08;;;;;;;;;;5048526;28;20185;-72
2022/09/19 13:52:06;;;;;;;6.80;1.15;;;;;;;;;;5035105;28;20178;-72
2022/09/19 13:55:01;;;;;;;8.85;1.13;;;;;;;;;;5040324;28;20558;-72
2022/09/19 13:57:30;;;;;;;9.27;1.20;;;;;;;;;;5043454;28;20251;-71
2022/09/19 13:59:58;;;;;;;5.75;1.00;;;;;;;;;;5031579;28;20225;-72
2022/09/19 14:02:32;;;;;;;7.18;1.45;;;;;;;;;;5032197;28;20192;-71
2022/09/19 14:05:10;;;;;;;6.45;1.25;;;;;;;;;;5031647;28;20613;-78
2022/09/19 14:07:54;;;;;;;7.22;1.75;;;;;;;;;;5032829;28;20215;-72
2022/09/19 14:10:35;;;;;;;4.25;1.05;;;;;;;;;;5032341;28;20197;-68
2022/09/19 14:13:31;;;;;;;6.68;1.10;;;;;;;;;;5037132;28;20672;-69
2022/09/19 14:15:59;;;;;;;8.63;1.33;;;;;;;;;;5033168;28;20204;-68
2022/09/19 14:18:37;;;;;;;8.13;1.80;;;;;;;;;;5032160;28;20194;-68
2022/09/19 14:21:05;;;;;;;6.20;1.10;;;;;;;;;;5030247;28;20204;-71
2022/09/19 14:23:34;;;;;;;7.40;1.05;;;;;;;;;;5033337;28;20209;-70
2022/09/19 14:26:02;;;;;;;9.10;1.50;;;;;;;;;;5044710;28;20681;-71
2022/09/19 14:28:57;;;;;;;6.00;1.17;;;;;;;;;;5041538;28;20213;-72
2022/09/19 14:31:44;;;;;;;8.43;1.40;;;;;;;;;;5034074;28;20283;-69
2022/09/19 14:34:47;;;;;;;10.73;1.20;;;;;;;;;;5043354;28;20577;-72
2022/09/19 14:37:46;;;;;;;7.78;1.38;;;;;;;;;;5031462;28;20270;-73
2022/09/19 14:40:31;;;;;;;10.05;1.60;;;;;;;;;;5033418;28;20171;-73
2022/09/19 14:43:15;;;;;;;11.30;1.45;;;;;;;;;;5042485;28;20216;-71
2022/09/19 14:46:09;;;;;;;10.43;1.45;;;;;;;;;;5040833;28;20195;-73
2022/09/19 14:48:43;;;;;;;9.38;1.67;;;;;;;;;;5034168;28;20212;-70
2022/09/19 14:51:26;;;;;;;11.70;1.70;;;;;;;;;;5045682;28;20185;-71
2022/09/19 14:54:02;;;;;;;9.38;1.40;;;;;;;;;;5036964;28;20642;-71
2022/09/19 14:56:28;;;;;;;6.40;1.13;;;;;;;;;;5031380;28;20606;-71
2022/09/19 14:58:53;;;;;;;9.63;1.52;;;;;;;;;;5033338;28;20216;-70
2022/09/19 15:01:30;;;;;;;11.35;1.70;;;;;;;;;;5029017;28;20259;-71
2022/09/19 15:04:00;;;;;;;7.68;1.15;;;;;;;;;;5035557;28;20863;-72
2022/09/19 15:06:41;;;;;;;4.22;1.15;;;;;;;;;;5027434;28;20546;-76
2022/09/19 15:09:36;;;;;;;8.27;1.30;;;;;;;;;;5037476;28;20181;-74
2022/09/19 15:12:15;;;;;;;6.20;1.85;;;;;;;;;;5044992;28;20220;-70
2022/09/19 15:14:46;;;;;;;10.27;1.40;;;;;;;;;;5035636;28;20177;-75
2022/09/19 15:17:18;;;;;;;8.82;1.23;;;;;;;;;;5047255;28;20232;-70
2022/09/19 15:19:48;;;;;;;8.50;1.17;;;;;;;;;;5055527;28;20536;-71
2022/09/19 15:22:33;;;;;;;10.18;1.42;;;;;;;;;;5048507;28;20607;-70
2022/09/19 15:25:03;;;;;;;7.60;1.50;;;;;;;;;;5033490;28;20553;-75
2022/09/19 15:27:33;;;;;;;7.03;1.80;;;;;;;;;;5038829;28;20314;-71
2022/09/19 15:30:17;;;;;;;7.10;1.83;;;;;;;;;;5037855;28;20272;-70
2022/09/19 15:32:43;;;;;;;5.82;1.27;;;;;;;;;;5037433;28;20213;-71
2022/09/19 15:35:14;;;;;;;7.82;1.13;;;;;;;;;;5034827;28;20256;-69
2022/09/19 15:37:42;;;;;;;8.73;1.63;;;;;;;;;;5035188;28;20194;-72
2022/09/19 15:40:14;;;;;;;11.25;1.42;;;;;;;;;;5036253;28;20234;-72